createdAt,value
2022-08-07T00:02:40.629Z,96471.19
2022-08-07T00:05:28.916Z,96472.41
2022-08-07T00:08:16.515Z,96478.97
2022-08-07T00:11:06.817Z,96472.91
2022-08-07T00:13:53.788Z,96469.41
2022-08-07T00:16:41.854Z,96474.75
2022-08-07T00:20:00.012Z,96475.72
2022-08-07T00:22:40.195Z,96472.19
2022-08-07T00:25:37.185Z,96474.81
2022-08-07T00:28:33.821Z,96481.41
2022-08-07T00:31:21.259Z,96476.47
2022-08-07T00:34:08.544Z,96479.38
2022-08-07T00:36:56.250Z,96474.09
2022-08-07T00:39:45.046Z,96477.50
2022-08-07T00:42:34.103Z,96480.97
2022-08-07T00:45:23.599Z,96469.50
2022-08-07T00:48:12.225Z,96468.75
2022-08-07T00:51:01.015Z,96467.44
2022-08-07T00:53:50.630Z,96474.38
2022-08-07T00:56:42.158Z,96468.84
2022-08-07T00:59:35.303Z,96466.41
2022-08-07T01:02:28.486Z,96466.63
2022-08-07T01:05:19.189Z,96475.00
2022-08-07T01:08:06.613Z,96467.06
2022-08-07T01:10:56.701Z,96472.13
2022-08-07T01:13:55.909Z,96473.28
2022-08-07T01:16:47.133Z,96459.47
2022-08-07T01:19:38.287Z,96461.44
2022-08-07T01:22:29.119Z,96462.03
2022-08-07T01:25:40.410Z,96459.38
2022-08-07T01:28:24.319Z,96457.97
2022-08-07T01:31:15.497Z,96451.72
2022-08-07T01:34:05.974Z,96445.81
2022-08-07T01:36:58.026Z,96441.41
2022-08-07T01:39:46.709Z,96444.44
2022-08-07T01:42:39.523Z,96448.25
2022-08-07T01:45:43.557Z,96447.50
2022-08-07T01:48:34.090Z,96440.38
2022-08-07T01:51:58.561Z,96435.75
2022-08-07T01:54:36.815Z,96434.53
2022-08-07T01:57:28.772Z,96435.03
2022-08-07T02:00:17.819Z,96435.44
2022-08-07T02:03:12.186Z,96433.38
2022-08-07T02:06:31.424Z,96425.97
2022-08-07T02:09:51.713Z,96421.72
2022-08-07T02:12:33.400Z,96429.34
2022-08-07T02:15:26.334Z,96427.41
2022-08-07T02:18:15.605Z,96421.13
2022-08-07T02:21:07.411Z,96419.38
2022-08-07T02:24:03.057Z,96420.06
2022-08-07T02:26:51.142Z,96420.16
2022-08-07T02:29:48.505Z,96417.41
2022-08-07T02:32:42.630Z,96417.66
2022-08-07T02:36:30.526Z,96421.50
2022-08-07T02:38:58.721Z,96416.25
2022-08-07T02:41:50.913Z,96415.28
2022-08-07T02:44:48.154Z,96420.56
2022-08-07T02:47:45.407Z,96414.47
2022-08-07T02:50:42.620Z,96420.22
2022-08-07T02:53:38.571Z,96421.38
2022-08-07T02:56:29.327Z,96409.56
2022-08-07T02:59:23.871Z,96425.09
2022-08-07T03:02:15.151Z,96413.22
2022-08-07T03:05:04.906Z,96422.78
2022-08-07T03:08:05.053Z,96428.41
2022-08-07T03:10:56.381Z,96430.06
2022-08-07T03:13:49.462Z,96430.75
2022-08-07T03:16:38.348Z,96435.88
2022-08-07T03:19:29.122Z,96430.97
2022-08-07T03:22:30.280Z,96427.63
2022-08-07T03:25:21.078Z,96427.16
2022-08-07T03:28:37.387Z,96432.66
2022-08-07T03:31:43.565Z,96436.72
2022-08-07T03:34:39.135Z,96430.38
2022-08-07T03:37:32.492Z,96432.28
2022-08-07T03:40:22.200Z,96438.69
2022-08-07T03:43:13.895Z,96430.47
2022-08-07T03:46:03.949Z,96437.28
2022-08-07T03:49:03.005Z,96436.09
2022-08-07T03:51:55.331Z,96433.44
2022-08-07T03:54:54.603Z,96437.56
2022-08-07T03:58:34.045Z,96432.22
2022-08-07T04:00:52.657Z,96425.75
2022-08-07T04:03:53.498Z,96426.66
2022-08-07T04:06:43.655Z,96426.00
2022-08-07T04:09:44.831Z,96423.47
2022-08-07T04:12:35.204Z,96422.72
2022-08-07T04:15:23.850Z,96427.59
2022-08-07T04:18:57.491Z,96422.47
2022-08-07T04:21:22.232Z,96420.69
2022-08-07T04:24:30.879Z,96430.97
2022-08-07T04:27:25.840Z,96432.41
2022-08-07T04:30:21.432Z,96425.00
2022-08-07T04:33:21.518Z,96423.69
2022-08-07T04:36:10.373Z,96420.88
2022-08-07T04:38:58.131Z,96435.31
2022-08-07T04:41:50.443Z,96423.97
2022-08-07T04:44:54.604Z,96430.56
2022-08-07T04:48:06.047Z,96429.00
2022-08-07T04:51:09.340Z,96437.78
2022-08-07T04:54:33.580Z,96425.66
2022-08-07T04:58:13.068Z,96433.25
2022-08-07T05:00:41.491Z,96432.16
2022-08-07T05:04:06.975Z,96432.38
2022-08-07T05:07:09.581Z,96424.44
2022-08-07T05:10:29.229Z,96427.44
2022-08-07T05:14:54.298Z,96423.03
2022-08-07T05:16:43.800Z,96425.94
2022-08-07T05:19:44.735Z,96430.63
2022-08-07T05:22:36.485Z,96430.19
2022-08-07T05:25:26.367Z,96432.34
2022-08-07T05:28:26.792Z,96432.34
2022-08-07T05:31:18.736Z,96425.88
2022-08-07T05:34:11.184Z,96422.19
2022-08-07T05:36:58.947Z,96410.91
2022-08-07T05:40:16.687Z,96423.59
2022-08-07T05:42:55.763Z,96418.66
2022-08-07T05:45:46.572Z,96417.63
2022-08-07T05:48:35.705Z,96427.81
2022-08-07T05:51:46.583Z,96422.25
2022-08-07T05:54:44.401Z,96426.41
2022-08-07T05:57:42.911Z,96425.00
2022-08-07T06:00:34.570Z,96416.50
2022-08-07T06:03:23.785Z,96415.94
2022-08-07T06:06:12.182Z,96418.66
2022-08-07T06:09:05.372Z,96424.84
2022-08-07T06:11:52.951Z,96428.00
2022-08-07T06:14:40.006Z,96423.41
2022-08-07T06:17:30.418Z,96419.38
2022-08-07T06:20:25.575Z,96416.41
2022-08-07T06:24:37.429Z,96426.25
2022-08-07T06:26:33.667Z,96417.88
2022-08-07T06:29:26.937Z,96413.50
2022-08-07T06:32:15.497Z,96406.97
2022-08-07T06:35:10.522Z,96417.34
2022-08-07T06:38:08.179Z,96404.66
2022-08-07T06:40:59.307Z,96412.50
2022-08-07T06:44:01.348Z,96415.09
2022-08-07T06:47:09.897Z,96402.97
2022-08-07T06:49:59.125Z,96403.13
2022-08-07T06:52:53.137Z,96408.16
2022-08-07T06:56:00.537Z,96406.56
2022-08-07T07:00:13.437Z,96411.66
2022-08-07T07:01:58.796Z,96407.09
2022-08-07T07:04:54.988Z,96399.16
2022-08-07T07:07:59.668Z,96391.88
2022-08-07T07:10:56.548Z,96389.34
2022-08-07T07:13:57.439Z,96379.06
2022-08-07T07:16:53.497Z,96375.34
2022-08-07T07:19:57.391Z,96365.06
2022-08-07T07:24:05.352Z,96366.00
2022-08-07T07:26:32.717Z,96364.88
2022-08-07T07:29:39.319Z,96380.06
2022-08-07T07:32:24.079Z,96376.16
2022-08-07T07:35:12.165Z,96368.53
2022-08-07T07:38:04.655Z,96373.03
2022-08-07T07:41:02.409Z,96372.16
2022-08-07T07:44:17.795Z,96365.78
2022-08-07T07:47:13.968Z,96355.66
2022-08-07T07:50:33.020Z,96363.72
2022-08-07T07:53:25.804Z,96366.72
2022-08-07T07:56:14.149Z,96362.50
2022-08-07T07:59:05.967Z,96356.81
2022-08-07T08:02:03.812Z,96356.97
2022-08-07T08:04:57.587Z,96359.25
2022-08-07T08:07:59.858Z,96362.19
2022-08-07T08:10:48.987Z,96365.84
2022-08-07T08:13:53.781Z,96356.72
2022-08-07T08:16:50.478Z,96369.41
2022-08-07T08:20:20.037Z,96366.97
2022-08-07T08:23:09.432Z,96364.50
2022-08-07T08:26:19.206Z,96356.69
2022-08-07T08:29:09.261Z,96353.13
2022-08-07T08:32:04.660Z,96346.53
2022-08-07T08:35:05.885Z,96349.25
2022-08-07T08:38:04.883Z,96351.34
2022-08-07T08:41:10.668Z,96350.94
2022-08-07T08:44:44.591Z,96352.88
2022-08-07T08:47:47.412Z,96347.34
2022-08-07T08:54:02.064Z,96355.19
2022-08-07T08:56:52.726Z,96346.75
2022-08-07T09:00:01.674Z,96348.81
2022-08-07T09:03:16.032Z,96349.13
2022-08-07T09:06:16.804Z,96346.09
2022-08-07T09:09:33.031Z,96341.88
2022-08-07T09:12:56.079Z,96352.59
2022-08-07T09:16:24.390Z,96346.47
2022-08-07T09:19:53.136Z,96344.41
2022-08-07T09:24:54.740Z,96349.84
2022-08-07T09:26:22.680Z,96347.47
2022-08-07T09:30:01.766Z,96339.19
2022-08-07T09:32:45.390Z,96331.63
2022-08-07T09:36:01.300Z,96337.97
2022-08-07T09:39:11.340Z,96342.81
2022-08-07T09:42:23.149Z,96331.44
2022-08-07T09:47:27.389Z,96345.13
2022-08-07T09:50:02.604Z,96339.09
2022-08-07T09:52:35.362Z,96334.88
2022-08-07T09:56:04.586Z,96321.66
2022-08-07T09:59:22.045Z,96318.69
2022-08-07T10:02:34.528Z,96322.03
2022-08-07T10:06:01.236Z,96300.06
2022-08-07T10:09:34.320Z,96299.13
2022-08-07T10:12:53.007Z,96296.22
2022-08-07T10:15:44.644Z,96303.16
2022-08-07T10:19:11.335Z,96302.59
2022-08-07T10:22:17.384Z,96303.63
2022-08-07T10:25:42.933Z,96289.59
2022-08-07T10:28:49.353Z,96302.91
2022-08-07T10:32:52.714Z,96304.59
2022-08-07T10:35:56.744Z,96296.03
2022-08-07T10:38:51.841Z,96290.63
2022-08-07T10:41:53.131Z,96289.41
2022-08-07T10:45:01.306Z,96291.75
2022-08-07T10:48:03.865Z,96282.19
2022-08-07T10:50:56.149Z,96285.09
2022-08-07T10:54:00.027Z,96269.00
2022-08-07T10:57:46.234Z,96271.84
2022-08-07T11:01:35.478Z,96277.75
2022-08-07T11:04:59.516Z,96274.56
2022-08-07T11:08:23.549Z,96275.50
2022-08-07T11:11:45.880Z,96272.09
2022-08-07T11:15:00.273Z,96270.25
2022-08-07T11:17:57.162Z,96280.44
2022-08-07T11:21:32.244Z,96264.56
2022-08-07T11:24:24.161Z,96254.63
2022-08-07T11:27:33.603Z,96257.41
2022-08-07T11:31:08.788Z,96256.94
2022-08-07T11:34:10.243Z,96256.59
2022-08-07T11:37:12.095Z,96256.09
2022-08-07T11:40:18.956Z,96243.19
2022-08-07T11:43:15.582Z,96238.75
2022-08-07T11:46:13.012Z,96232.72
2022-08-07T11:50:11.553Z,96242.84
2022-08-07T11:53:13.062Z,96253.06
2022-08-07T11:56:35.230Z,96230.94
2022-08-07T12:00:11.708Z,96231.09
2022-08-07T12:02:52.617Z,96219.44
2022-08-07T12:05:48.895Z,96226.13
2022-08-07T12:09:23.385Z,96235.25
2022-08-07T12:12:13.571Z,96230.50
2022-08-07T12:15:17.141Z,96227.56
2022-08-07T12:18:31.433Z,96223.41
2022-08-07T12:22:35.722Z,96222.44
2022-08-07T12:26:03.183Z,96226.00
2022-08-07T12:28:49.725Z,96218.25
2022-08-07T12:32:04.762Z,96218.84
2022-08-07T12:34:56.253Z,96220.88
2022-08-07T12:38:09.227Z,96217.97
2022-08-07T12:40:57.752Z,96228.34
2022-08-07T12:44:02.923Z,96218.44
2022-08-07T12:47:50.223Z,96224.69
2022-08-07T12:50:48.707Z,96204.50
2022-08-07T12:54:38.364Z,96200.56
2022-08-07T12:57:20.084Z,96198.66
2022-08-07T13:00:21.050Z,96197.75
2022-08-07T13:03:59.211Z,96200.50
2022-08-07T13:07:02.088Z,96195.91
2022-08-07T13:10:39.820Z,96198.56
2022-08-07T13:13:47.946Z,96172.22
2022-08-07T13:16:50.907Z,96182.63
2022-08-07T13:19:59.800Z,96187.44
2022-08-07T13:23:09.977Z,96190.72
2022-08-07T13:26:18.269Z,96186.53
2022-08-07T13:29:15.590Z,96174.13
2022-08-07T13:32:31.652Z,96175.38
2022-08-07T13:35:59.475Z,96162.84
2022-08-07T13:39:13.136Z,96148.56
2022-08-07T13:42:21.567Z,96169.97
2022-08-07T13:46:06.628Z,96172.75
2022-08-07T13:48:33.687Z,96158.22
2022-08-07T13:51:28.020Z,96162.47
2022-08-07T13:54:36.732Z,96161.38
2022-08-07T13:57:37.659Z,96156.06
2022-08-07T14:00:35.145Z,96154.72
2022-08-07T14:04:05.280Z,96145.06
2022-08-07T14:06:43.498Z,96134.69
2022-08-07T14:10:01.297Z,96130.59
2022-08-07T14:12:54.749Z,96138.25
2022-08-07T14:15:44.590Z,96129.59
2022-08-07T14:18:46.047Z,96136.84
2022-08-07T14:22:03.033Z,96139.81
2022-08-07T14:24:54.345Z,96141.38
2022-08-07T14:28:12.505Z,96132.72
2022-08-07T14:30:57.065Z,96130.94
2022-08-07T14:33:46.087Z,96127.47
2022-08-07T14:36:34.561Z,96132.53
2022-08-07T14:40:17.391Z,96131.44
2022-08-07T14:42:32.676Z,96125.38
2022-08-07T14:45:22.670Z,96112.75
2022-08-07T14:48:19.683Z,96129.88
2022-08-07T14:51:16.097Z,96121.38
2022-08-07T14:54:30.638Z,96127.88
2022-08-07T14:57:54.857Z,96118.44
2022-08-07T15:00:29.988Z,96122.56
2022-08-07T15:03:25.650Z,96132.09
2022-08-07T15:06:34.835Z,96129.47
2022-08-07T15:09:59.630Z,96132.22
2022-08-07T15:12:42.102Z,96118.25
2022-08-07T15:15:52.790Z,96119.84
2022-08-07T15:18:48.272Z,96116.34
2022-08-07T15:25:15.314Z,96101.47
2022-08-07T15:28:32.453Z,96089.06
2022-08-07T15:31:57.998Z,96102.91
2022-08-07T15:34:26.170Z,96120.44
2022-08-07T15:37:16.728Z,96110.06
2022-08-07T15:40:33.881Z,96106.53
2022-08-07T15:43:33.146Z,96101.03
2022-08-07T15:46:47.416Z,96112.97
2022-08-07T15:50:05.768Z,96099.28
2022-08-07T15:53:04.932Z,96102.09
2022-08-07T15:56:02.524Z,96101.22
2022-08-07T15:58:57.287Z,96093.16
2022-08-07T16:02:02.058Z,96095.56
2022-08-07T16:04:56.451Z,96093.03
2022-08-07T16:08:32.925Z,96098.34
2022-08-07T16:11:01.221Z,96098.53
2022-08-07T16:13:58.754Z,96094.47
2022-08-07T16:17:15.235Z,96091.56
2022-08-07T16:20:33.140Z,96094.84
2022-08-07T16:23:53.905Z,96103.53
2022-08-07T16:27:03.365Z,96096.19
2022-08-07T16:30:30.616Z,96088.31
2022-08-07T16:34:01.834Z,96080.97
2022-08-07T16:37:02.419Z,96085.47
2022-08-07T16:40:32.105Z,96081.50
2022-08-07T16:44:05.759Z,96082.59
2022-08-07T16:47:16.036Z,96087.75
2022-08-07T16:50:39.322Z,96089.16
2022-08-07T16:54:06.154Z,96083.94
2022-08-07T16:58:00.957Z,96090.38
2022-08-07T17:01:07.972Z,96081.91
2022-08-07T17:04:29.588Z,96077.16
2022-08-07T17:07:55.729Z,96089.63
2022-08-07T17:10:54.271Z,96089.63
2022-08-07T17:14:19.145Z,96094.25
2022-08-07T17:17:21.653Z,96099.88
2022-08-07T17:20:41.705Z,96105.09
2022-08-07T17:23:41.150Z,96108.75
2022-08-07T17:26:49.841Z,96096.19
2022-08-07T17:30:14.355Z,96107.81
2022-08-07T17:34:09.065Z,96107.06
2022-08-07T17:36:30.808Z,96109.78
2022-08-07T17:39:58.188Z,96105.75
2022-08-07T17:42:59.709Z,96114.03
2022-08-07T17:45:58.843Z,96120.44
2022-08-07T17:49:22.906Z,96119.81
2022-08-07T17:52:30.761Z,96115.50
2022-08-07T17:56:00.382Z,96120.97
2022-08-07T17:58:50.578Z,96115.63
2022-08-07T18:01:56.786Z,96128.44
2022-08-07T18:05:20.882Z,96133.00
2022-08-07T18:08:16.431Z,96134.97
2022-08-07T18:12:19.374Z,96135.44
2022-08-07T18:15:08.942Z,96148.22
2022-08-07T18:18:44.900Z,96158.00
2022-08-07T18:21:53.547Z,96166.47
2022-08-07T18:25:01.653Z,96170.44
2022-08-07T18:28:34.229Z,96178.88
2022-08-07T18:31:40.882Z,96194.75
2022-08-07T18:35:01.068Z,96188.47
2022-08-07T18:38:56.987Z,96198.19
2022-08-07T18:41:57.717Z,96203.13
2022-08-07T18:45:44.123Z,96209.53
2022-08-07T18:50:30.812Z,96213.34
2022-08-07T18:52:38.305Z,96215.47
2022-08-07T18:55:55.494Z,96233.00
2022-08-07T18:59:05.777Z,96226.44
2022-08-07T19:02:33.083Z,96230.31
2022-08-07T19:05:16.017Z,96230.44
2022-08-07T19:08:14.164Z,96237.59
2022-08-07T19:11:34.865Z,96250.69
2022-08-07T19:14:17.078Z,96255.31
2022-08-07T19:18:01.067Z,96252.91
2022-08-07T19:20:37.322Z,96258.63
2022-08-07T19:23:58.811Z,96268.44
2022-08-07T19:27:01.699Z,96270.50
2022-08-07T19:31:03.181Z,96268.44
2022-08-07T19:33:13.177Z,96266.84
2022-08-07T19:36:04.110Z,96272.03
2022-08-07T19:38:54.504Z,96268.84
2022-08-07T19:42:07.995Z,96278.63
2022-08-07T19:44:55.552Z,96288.31
2022-08-07T19:47:48.187Z,96280.06
2022-08-07T19:50:43.755Z,96280.94
2022-08-07T19:54:30.947Z,96275.06
2022-08-07T19:58:00.331Z,96276.59
2022-08-07T20:00:08.869Z,96274.09
2022-08-07T20:03:03.773Z,96274.66
2022-08-07T20:06:03.090Z,96277.72
2022-08-07T20:08:52.644Z,96273.94
2022-08-07T20:12:22.487Z,96270.09
2022-08-07T20:14:58.503Z,96264.91
2022-08-07T20:18:01.418Z,96268.97
2022-08-07T20:20:55.234Z,96269.13
2022-08-07T20:23:48.427Z,96275.50
2022-08-07T20:26:50.153Z,96272.59
2022-08-07T20:29:49.550Z,96276.75
2022-08-07T20:32:46.730Z,96262.72
2022-08-07T20:35:54.603Z,96270.47
2022-08-07T20:39:00.275Z,96274.66
2022-08-07T20:41:54.275Z,96268.31
2022-08-07T20:44:49.513Z,96272.63
2022-08-07T20:47:56.895Z,96265.19
2022-08-07T20:50:45.544Z,96268.84
2022-08-07T20:54:02.034Z,96271.41
2022-08-07T20:56:45.905Z,96273.44
2022-08-07T21:00:06.282Z,96271.16
2022-08-07T21:02:59.862Z,96267.94
2022-08-07T21:05:57.114Z,96263.72
2022-08-07T21:09:14.227Z,96264.19
2022-08-07T21:12:05.641Z,96262.81
2022-08-07T21:15:07.186Z,96271.31
2022-08-07T21:18:09.015Z,96256.91
2022-08-07T21:21:05.671Z,96261.06
2022-08-07T21:24:05.955Z,96263.78
2022-08-07T21:27:14.658Z,96276.22
2022-08-07T21:30:08.687Z,96273.75
2022-08-07T21:33:15.032Z,96268.66
2022-08-07T21:36:32.254Z,96258.47
2022-08-07T21:39:47.221Z,96265.91
2022-08-07T21:43:04.597Z,96277.56
2022-08-07T21:46:09.794Z,96278.09
2022-08-07T21:49:20.949Z,96281.50
2022-08-07T21:52:16.860Z,96276.63
2022-08-07T21:55:48.250Z,96285.84
2022-08-07T21:59:01.557Z,96288.84
2022-08-07T22:02:11.184Z,96296.06
2022-08-07T22:05:03.479Z,96309.06
2022-08-07T22:07:58.483Z,96311.78
2022-08-07T22:10:51.014Z,96305.59
2022-08-07T22:13:52.593Z,96309.88
2022-08-07T22:16:56.348Z,96312.78
2022-08-07T22:20:00.567Z,96312.19
2022-08-07T22:23:13.024Z,96306.34
2022-08-07T22:26:14.340Z,96315.19
2022-08-07T22:29:13.731Z,96315.34
2022-08-07T22:32:24.488Z,96311.13
2022-08-07T22:35:11.828Z,96314.63
2022-08-07T22:38:26.082Z,96308.69
2022-08-07T22:42:02.448Z,96300.38
2022-08-07T22:44:35.708Z,96298.09
2022-08-07T22:47:44.239Z,96301.34
2022-08-07T22:50:42.228Z,96295.75
2022-08-07T22:54:07.000Z,96304.81
2022-08-07T22:57:26.118Z,96299.66
2022-08-07T23:00:28.745Z,96304.81
2022-08-07T23:03:57.250Z,96298.72
2022-08-07T23:07:30.172Z,96292.59
2022-08-07T23:10:42.347Z,96300.63
2022-08-07T23:14:10.812Z,96308.66
2022-08-07T23:17:23.346Z,96312.19
2022-08-07T23:20:40.548Z,96309.44
2022-08-07T23:24:11.125Z,96312.78
2022-08-07T23:27:16.751Z,96315.69
2022-08-07T23:30:37.608Z,96317.66
2022-08-07T23:34:23.629Z,96313.75
2022-08-07T23:37:29.672Z,96309.91
2022-08-07T23:40:39.830Z,96308.63
2022-08-07T23:44:05.275Z,96303.47
2022-08-07T23:47:30.878Z,96304.19
2022-08-07T23:50:49.522Z,96310.88
2022-08-07T23:54:06.233Z,96308.56
2022-08-07T23:57:13.405Z,96302.16
